Time;durP1;ratioP1;P1;durP2;ratioP2;P2;SDS_P1;SDS_P2;PMS_P1;PMS_P2;Temp;Humidity;BMP_temperature;BMP_pressure;BME280_temperature;BME280_humidity;BME280_pressure;Samples;Min_cycle;Max_cycle;Signal;HPM_P1;HPM_P2
2022/09/10 00:01:17;;;;;;;13.32;6.45;;;;;;;15.94;100.00;98723.63;4867276;29;20037;-85
2022/09/10 00:03:43;;;;;;;10.73;5.65;;;;;;;15.91;100.00;98716.13;4874589;29;20037;-85
2022/09/10 00:06:09;;;;;;;18.13;6.28;;;;;;;15.95;100.00;98727.88;4886114;29;20092;-85
2022/09/10 00:08:36;;;;;;;14.15;6.10;;;;;;;15.92;100.00;98731.00;4886844;29;20035;-85
2022/09/10 00:11:08;;;;;;;17.88;6.30;;;;;;;15.76;100.00;98738.63;4871737;29;20040;-85
2022/09/10 00:13:36;;;;;;;17.45;6.35;;;;;;;15.77;100.00;98737.59;4872382;29;20041;-85
2022/09/10 00:16:04;;;;;;;19.02;6.85;;;;;;;15.68;100.00;98734.50;4888941;29;20391;-86
2022/09/10 00:18:30;;;;;;;14.18;6.43;;;;;;;15.76;100.00;98730.69;4868729;29;20547;-86
2022/09/10 00:20:57;;;;;;;14.38;6.43;;;;;;;15.73;100.00;98738.28;4901955;29;20045;-85
2022/09/10 00:23:26;;;;;;;12.88;7.05;;;;;;;15.77;100.00;98737.59;4879056;29;20064;-86
2022/09/10 00:25:54;;;;;;;12.20;6.15;;;;;;;15.75;100.00;98737.03;4894873;29;20033;-86
2022/09/10 00:28:22;;;;;;;15.30;6.00;;;;;;;15.77;100.00;98737.59;4896547;29;20128;-86
2022/09/10 00:30:50;;;;;;;14.35;5.60;;;;;;;15.72;100.00;98729.53;4863523;29;20459;-86
2022/09/10 00:33:17;;;;;;;10.23;6.00;;;;;;;15.73;100.00;98728.53;4896999;29;20029;-85
2022/09/10 00:35:44;;;;;;;14.05;6.05;;;;;;;15.57;100.00;98727.41;4897652;29;20047;-85
2022/09/10 00:38:11;;;;;;;14.13;5.15;;;;;;;15.50;100.00;98716.16;4899512;29;20116;-85
2022/09/10 00:40:39;;;;;;;14.25;4.93;;;;;;;15.44;100.00;98725.84;4898967;29;20040;-85
2022/09/10 00:43:13;;;;;;;13.95;5.25;;;;;;;15.38;100.00;98727.56;4883370;29;20040;-85
2022/09/10 00:45:40;;;;;;;12.52;4.85;;;;;;;15.48;100.00;98729.59;4881311;29;20037;-86
2022/09/10 00:48:15;;;;;;;12.52;5.18;;;;;;;15.36;100.00;98729.66;4899548;29;20490;-86
2022/09/10 00:50:44;;;;;;;14.93;4.70;;;;;;;15.26;100.00;98738.16;4898624;29;20441;-86
2022/09/10 00:53:14;;;;;;;11.15;4.15;;;;;;;15.22;100.00;98731.75;4890609;29;20095;-85
2022/09/10 00:55:44;;;;;;;12.88;3.83;;;;;;;15.25;100.00;98741.84;4896794;29;20403;-86
2022/09/10 00:58:11;;;;;;;10.07;4.00;;;;;;;15.20;100.00;98744.41;4882669;29;20526;-85
2022/09/10 01:00:40;;;;;;;15.40;4.65;;;;;;;15.07;100.00;98734.06;4883186;29;20504;-84
2022/09/10 01:03:10;;;;;;;12.60;4.72;;;;;;;15.07;100.00;98739.34;4881127;29;20037;-84
2022/09/10 01:05:37;;;;;;;16.80;4.53;;;;;;;15.05;100.00;98742.22;4898188;29;20555;-85
2022/09/10 01:08:04;;;;;;;7.53;4.78;;;;;;;15.05;100.00;98750.16;4897837;29;20410;-84
2022/09/10 01:10:35;;;;;;;9.43;4.75;;;;;;;15.05;100.00;98746.69;4866715;29;20039;-85
2022/09/10 01:13:03;;;;;;;10.45;4.43;;;;;;;15.05;100.00;98754.63;4882048;29;20480;-85
2022/09/10 01:15:41;;;;;;;11.60;4.63;;;;;;;15.03;100.00;98744.28;4881142;29;20037;-84
2022/09/10 01:18:22;;;;;;;8.65;4.20;;;;;;;15.07;100.00;98745.44;4897959;29;20036;-84
2022/09/10 01:21:21;;;;;;;12.93;4.30;;;;;;;15.01;100.00;98754.28;4898797;29;20060;-86
2022/09/10 01:24:05;;;;;;;5.43;4.00;;;;;;;14.99;100.00;98765.09;4898108;29;20037;-85
2022/09/10 01:26:30;;;;;;;;;;;;;;;15.08;100.00;98751.53;4897474;29;20040;-86
2022/09/10 01:29:01;;;;;;;10.82;3.90;;;;;;;14.96;100.00;98762.91;4882510;29;20421;-86
2022/09/10 01:31:35;;;;;;;6.75;4.10;;;;;;;14.90;100.00;98737.38;4896808;29;20486;-85
2022/09/10 01:34:12;;;;;;;8.27;4.05;;;;;;;14.94;100.00;98750.97;4897591;29;20475;-85
2022/09/10 01:36:46;;;;;;;5.93;3.67;;;;;;;15.01;100.00;98764.84;4897280;29;20112;-85
2022/09/10 01:39:15;;;;;;;12.15;4.32;;;;;;;14.96;100.00;98757.63;4897110;29;20423;-84
2022/09/10 01:41:42;;;;;;;8.32;3.90;;;;;;;14.88;100.00;98746.59;4898187;29;20036;-85
2022/09/10 01:44:47;;;;;;;17.00;4.45;;;;;;;14.87;100.00;98753.72;4881127;29;20403;-85
2022/09/10 01:47:34;;;;;;;7.68;4.38;;;;;;;14.96;100.00;98765.56;4895854;29;20037;-86
2022/09/10 01:50:51;;;;;;;7.30;3.75;;;;;;;15.03;100.00;98765.41;4897631;29;20043;-85
2022/09/10 01:53:59;;;;;;;6.57;4.63;;;;;;;14.96;100.00;98770.84;4880316;29;20095;-84
2022/09/10 01:56:51;;;;;;;15.20;4.43;;;;;;;14.91;100.00;98777.84;4892135;29;20056;-86
2022/09/10 01:59:43;;;;;;;7.85;4.38;;;;;;;15.01;100.00;98783.34;4881187;29;20043;-85
2022/09/10 02:02:18;;;;;;;10.73;4.85;;;;;;;14.99;100.00;98786.25;4887565;29;20045;-87
2022/09/10 02:04:46;;;;;;;6.88;4.68;;;;;;;15.05;100.00;98778.41;4895881;29;20115;-86
2022/09/10 02:07:14;;;;;;;8.95;4.78;;;;;;;14.98;100.00;98778.53;4881334;29;20039;-86
2022/09/10 02:09:41;;;;;;;11.95;5.32;;;;;;;14.96;100.00;98770.03;4882796;29;20397;-85
2022/09/10 02:12:06;;;;;;;10.48;5.35;;;;;;;14.89;100.00;98775.41;4897493;29;20115;-86
2022/09/10 02:14:32;;;;;;;6.65;4.70;;;;;;;15.04;100.00;98779.47;4897636;29;20135;-85
2022/09/10 02:16:59;;;;;;;9.90;4.72;;;;;;;14.87;100.00;98785.41;4897536;29;20032;-85
2022/09/10 02:19:26;;;;;;;8.60;5.47;;;;;;;14.92;100.00;98790.81;4898526;29;20372;-86
2022/09/10 02:21:54;;;;;;;11.27;4.65;;;;;;;14.96;100.00;98785.88;4900827;29;20056;-85
2022/09/10 02:24:21;;;;;;;11.75;4.95;;;;;;;14.84;100.00;98777.97;4896351;29;20092;-85
2022/09/10 02:26:48;;;;;;;6.47;5.10;;;;;;;14.90;100.00;98792.09;4904803;29;20040;-86
2022/09/10 02:29:15;;;;;;;9.27;4.70;;;;;;;14.96;100.00;98781.41;4893123;29;20055;-86
2022/09/10 02:31:42;;;;;;;7.35;4.55;;;;;;;14.81;100.00;98800.34;4920285;29;20059;-86
2022/09/10 02:34:09;;;;;;;10.57;5.00;;;;;;;14.83;100.00;98784.28;4906104;29;20036;-85
2022/09/10 02:36:35;;;;;;;5.60;4.50;;;;;;;14.91;100.00;98797.13;4910233;29;20439;-84
2022/09/10 02:39:03;;;;;;;8.95;4.78;;;;;;;14.80;100.00;98788.16;4907466;29;20035;-86
2022/09/10 02:41:31;;;;;;;11.05;4.18;;;;;;;14.98;100.00;98803.13;4905438;29;20456;-86
2022/09/10 02:43:57;;;;;;;8.65;4.28;;;;;;;14.90;100.00;98806.09;4904023;29;20165;-85
2022/09/10 02:46:22;;;;;;;7.88;4.40;;;;;;;15.05;100.00;98800.38;4903022;29;20471;-86
2022/09/10 02:48:48;;;;;;;5.82;3.95;;;;;;;15.10;100.00;98803.13;4889052;29;20036;-85
2022/09/10 02:51:13;;;;;;;14.18;4.70;;;;;;;15.01;100.00;98793.13;4906251;29;20036;-86
2022/09/10 02:53:39;;;;;;;10.02;4.72;;;;;;;15.19;100.00;98800.94;4891197;29;20036;-85
2022/09/10 02:56:06;;;;;;;7.70;4.18;;;;;;;15.24;100.00;98803.69;4905702;29;20546;-87
2022/09/10 02:58:32;;;;;;;6.72;4.30;;;;;;;15.24;100.00;98813.50;4886225;29;20052;-87
2022/09/10 03:01:17;;;;;;;13.93;4.80;;;;;;;15.32;100.00;98804.38;4909239;29;20025;-86
2022/09/10 03:03:54;;;;;;;9.65;4.85;;;;;;;15.44;100.00;98813.13;4903492;29;20032;-87
2022/09/10 03:06:22;;;;;;;8.02;5.03;;;;;;;15.48;100.00;98813.47;4907311;29;20083;-86
2022/09/10 03:08:49;;;;;;;12.85;4.68;;;;;;;15.50;100.00;98808.75;4907192;29;21430;-86
2022/09/10 03:11:15;;;;;;;7.95;4.30;;;;;;;15.62;100.00;98804.22;4906539;29;20028;-87
2022/09/10 03:13:44;;;;;;;15.50;4.85;;;;;;;15.66;100.00;98815.16;4890872;29;20083;-88
2022/09/10 03:16:14;;;;;;;10.65;5.07;;;;;;;15.69;100.00;98798.78;4905483;29;20036;-86
2022/09/10 03:18:43;;;;;;;8.75;4.65;;;;;;;15.74;100.00;98809.50;4905051;29;20501;-86
2022/09/10 03:21:19;;;;;;;12.60;5.30;;;;;;;15.63;100.00;98815.63;4889346;29;20051;-87
2022/09/10 03:23:48;;;;;;;10.65;4.57;;;;;;;15.54;100.00;98823.09;4886937;29;20043;-87
2022/09/10 03:26:15;;;;;;;9.57;4.30;;;;;;;15.57;100.00;98825.28;4891040;29;20040;-86
2022/09/10 03:28:42;;;;;;;10.18;4.88;;;;;;;15.55;100.00;98822.06;4882902;29;20037;-86
2022/09/10 03:31:08;;;;;;;10.35;4.22;;;;;;;15.46;100.00;98823.47;4883926;29;20041;-85
2022/09/10 03:33:36;;;;;;;8.40;4.45;;;;;;;15.60;100.00;98827.47;4859901;29;20040;-85
2022/09/10 03:36:03;;;;;;;6.85;4.40;;;;;;;15.64;100.00;98827.81;4855713;29;20040;-85
2022/09/10 03:38:28;;;;;;;7.07;4.15;;;;;;;15.59;100.00;98823.19;4851875;29;20033;-85
2022/09/10 03:40:54;;;;;;;12.15;4.53;;;;;;;15.63;100.00;98820.91;4870893;29;20129;-86
2022/09/10 03:43:21;;;;;;;7.57;4.68;;;;;;;15.62;100.00;98822.72;4889011;29;20041;-85
2022/09/10 03:45:50;;;;;;;10.20;4.40;;;;;;;15.66;100.00;98809.84;4886079;29;20112;-85
2022/09/10 03:48:17;;;;;;;11.18;6.07;;;;;;;15.62;100.00;98814.00;4891139;29;20035;-85
2022/09/10 03:50:44;;;;;;;8.95;4.05;;;;;;;15.84;100.00;98827.44;4881807;29;20033;-85
2022/09/10 03:53:14;;;;;;;7.75;4.40;;;;;;;15.85;100.00;98824.53;4868685;29;20033;-86
2022/09/10 03:55:47;;;;;;;10.98;4.82;;;;;;;15.74;100.00;98822.72;4898798;29;20637;-85
2022/09/10 03:58:14;;;;;;;7.93;4.05;;;;;;;15.80;100.00;98819.16;4867288;29;20089;-85
2022/09/10 04:00:41;;;;;;;20.05;5.55;;;;;;;15.72;100.00;98819.50;4887599;29;20029;-85
2022/09/10 04:03:07;;;;;;;10.60;4.70;;;;;;;15.84;100.00;98822.94;4867415;29;20486;-85
2022/09/10 04:05:33;;;;;;;11.40;4.68;;;;;;;15.68;100.00;98823.66;4883782;29;20120;-86
2022/09/10 04:08:01;;;;;;;11.05;4.78;;;;;;;15.76;100.00;98820.66;4871063;29;20043;-85
2022/09/10 04:10:29;;;;;;;9.15;4.55;;;;;;;15.68;100.00;98824.47;4886468;29;20033;-85
2022/09/10 04:12:55;;;;;;;8.75;4.88;;;;;;;15.74;100.00;98827.22;4892037;29;20040;-86
2022/09/10 04:15:21;;;;;;;8.80;4.60;;;;;;;15.75;100.00;98828.81;4886790;29;20029;-86
2022/09/10 04:17:51;;;;;;;8.65;5.28;;;;;;;15.73;100.00;98825.59;4876037;29;20032;-86
2022/09/10 04:20:21;;;;;;;14.15;5.20;;;;;;;15.64;100.00;98825.97;4891669;29;20423;-86
2022/09/10 04:22:47;;;;;;;11.40;5.90;;;;;;;15.54;100.00;98833.69;4905352;29;20506;-86
2022/09/10 04:25:14;;;;;;;8.38;5.10;;;;;;;15.59;100.00;98835.63;4907664;29;20080;-86
2022/09/10 04:27:41;;;;;;;14.90;5.35;;;;;;;15.47;100.00;98839.09;4909553;29;20037;-87
2022/09/10 04:30:08;;;;;;;14.10;5.55;;;;;;;15.47;100.00;98827.72;4908842;29;20051;-85
2022/09/10 04:32:33;;;;;;;13.20;6.53;;;;;;;15.52;100.00;98836.53;4911845;29;20043;-86
2022/09/10 04:35:01;;;;;;;9.02;5.40;;;;;;;15.56;100.00;98837.72;4909536;29;20483;-85
2022/09/10 04:37:27;;;;;;;15.82;6.32;;;;;;;15.50;100.00;98843.13;4890646;29;20164;-86
2022/09/10 04:39:53;;;;;;;7.82;5.45;;;;;;;15.48;100.00;98834.63;4890588;29;20119;-85
2022/09/10 04:42:19;;;;;;;15.35;6.13;;;;;;;15.59;100.00;98846.22;4895155;29;20178;-85
2022/09/10 04:44:48;;;;;;;9.93;6.35;;;;;;;15.59;100.00;98846.22;4911290;29;20521;-84
2022/09/10 04:47:15;;;;;;;15.35;6.15;;;;;;;15.70;100.00;98853.31;4907551;29;20024;-85
2022/09/10 04:49:41;;;;;;;10.70;6.07;;;;;;;15.68;100.00;98855.41;4893269;29;20047;-87
2022/09/10 04:52:06;;;;;;;15.40;5.75;;;;;;;15.68;100.00;98844.81;4888992;29;20479;-85
2022/09/10 04:54:32;;;;;;;11.90;6.10;;;;;;;15.66;100.00;98857.47;4908061;29;20036;-85
2022/09/10 04:56:59;;;;;;;12.02;6.00;;;;;;;15.75;100.00;98857.94;4894343;29;20504;-85
2022/09/10 04:59:27;;;;;;;13.60;5.85;;;;;;;15.68;100.00;98856.22;4893202;29;20060;-85
2022/09/10 05:01:53;;;;;;;15.15;6.55;;;;;;;15.85;100.00;98856.28;4889721;29;20108;-86
2022/09/10 05:04:18;;;;;;;11.38;6.10;;;;;;;15.76;100.00;98868.28;4908148;29;20126;-86
2022/09/10 05:06:44;;;;;;;13.15;6.22;;;;;;;15.76;100.00;98872.75;4909893;29;20032;-86
2022/09/10 05:09:10;;;;;;;10.30;5.78;;;;;;;15.49;100.00;98858.19;4907111;29;20028;-85
2022/09/10 05:11:36;;;;;;;15.48;5.95;;;;;;;15.78;100.00;98870.69;4891050;29;20068;-87
2022/09/10 05:14:02;;;;;;;9.63;5.57;;;;;;;15.80;100.00;98880.00;4876944;29;20474;-86
2022/09/10 05:16:28;;;;;;;17.20;6.10;;;;;;;15.88;100.00;98878.84;4906426;29;20044;-85
2022/09/10 05:18:55;;;;;;;9.70;5.68;;;;;;;15.87;100.00;98876.44;4907731;29;20470;-87
2022/09/10 05:21:21;;;;;;;14.68;5.95;;;;;;;15.88;100.00;98864.78;4893115;29;20044;-87
2022/09/10 05:23:47;;;;;;;8.10;5.28;;;;;;;15.97;100.00;98868.75;4874091;29;20483;-86
2022/09/10 05:26:12;;;;;;;15.73;6.75;;;;;;;15.90;100.00;98881.28;4891960;29;20036;-87
2022/09/10 05:28:38;;;;;;;10.27;4.93;;;;;;;16.08;100.00;98881.13;4887934;29;20037;-87
2022/09/10 05:31:04;;;;;;;10.20;5.00;;;;;;;15.91;100.00;98880.25;4887764;29;20092;-86
2022/09/10 05:33:30;;;;;;;9.00;5.03;;;;;;;15.94;100.00;98893.03;4889726;29;20024;-86
2022/09/10 05:35:56;;;;;;;13.73;5.45;;;;;;;16.03;100.00;98877.59;4872901;29;20080;-86
2022/09/10 05:38:22;;;;;;;10.30;5.20;;;;;;;15.98;100.00;98891.53;4873919;29;20084;-86
2022/09/10 05:40:48;;;;;;;14.63;5.65;;;;;;;16.13;100.00;98899.78;4891244;29;20037;-87
2022/09/10 05:43:13;;;;;;;12.63;5.10;;;;;;;16.16;100.00;98897.69;4897308;29;20029;-86
2022/09/10 05:45:39;;;;;;;13.25;5.38;;;;;;;16.10;100.00;98902.88;4889651;29;20498;-85
2022/09/10 05:48:04;;;;;;;9.07;5.45;;;;;;;16.20;100.00;98912.06;4869087;29;20033;-86
2022/09/10 05:50:30;;;;;;;10.95;5.63;;;;;;;16.15;100.00;98918.06;4886959;29;20037;-86
2022/09/10 05:53:00;;;;;;;11.65;5.70;;;;;;;16.21;100.00;98921.63;4860863;29;20041;-87
2022/09/10 05:55:26;;;;;;;9.00;5.53;;;;;;;16.06;100.00;98920.28;4900143;29;20037;-84
2022/09/10 05:57:51;;;;;;;10.60;5.55;;;;;;;16.05;100.00;98921.31;4886966;29;20029;-87
2022/09/10 06:00:17;;;;;;;15.15;5.43;;;;;;;16.23;100.00;98932.78;4891444;29;20506;-88
2022/09/10 06:02:44;;;;;;;13.43;5.35;;;;;;;16.20;100.00;98920.03;4891937;29;20391;-87
2022/09/10 06:05:10;;;;;;;13.73;5.57;;;;;;;16.06;100.00;98922.13;4887962;29;20044;-86
2022/09/10 06:07:35;;;;;;;10.85;5.15;;;;;;;16.19;100.00;98939.59;4888411;29;20408;-86
2022/09/10 06:10:01;;;;;;;7.75;5.05;;;;;;;16.09;100.00;98935.69;4885822;29;20072;-87
2022/09/10 06:12:26;;;;;;;11.85;5.82;;;;;;;16.20;100.00;98946.50;4874673;29;20039;-86
2022/09/10 06:14:52;;;;;;;9.88;4.97;;;;;;;16.28;100.00;98936.34;4886220;29;20032;-87
2022/09/10 06:17:18;;;;;;;12.43;5.68;;;;;;;16.32;100.00;98936.69;4901775;29;20028;-86
2022/09/10 06:19:44;;;;;;;10.73;5.20;;;;;;;16.12;100.00;98940.53;4876084;29;20076;-86
2022/09/10 06:22:13;;;;;;;13.77;5.75;;;;;;;16.06;100.00;98938.81;4881008;29;20110;-89
2022/09/10 06:24:38;;;;;;;12.85;5.85;;;;;;;16.10;100.00;98934.63;4884770;29;20486;-87
2022/09/10 06:27:05;;;;;;;11.63;5.25;;;;;;;16.08;100.00;98939.38;4892767;29;20032;-87
2022/09/10 06:29:35;;;;;;;16.42;6.80;;;;;;;15.94;100.00;98941.47;4923294;29;20489;-88
2022/09/10 06:32:01;;;;;;;13.40;5.57;;;;;;;16.00;100.00;98968.84;4918888;29;20032;-87
2022/09/10 06:34:27;;;;;;;12.93;7.68;;;;;;;15.79;100.00;98967.56;4913692;29;20044;-87
2022/09/10 06:36:54;;;;;;;17.98;6.43;;;;;;;15.69;100.00;98962.84;4907833;29;20047;-85
2022/09/10 06:39:19;;;;;;;20.92;6.45;;;;;;;15.89;100.00;98965.19;4915635;29;20052;-84
2022/09/10 06:41:45;;;;;;;18.92;6.88;;;;;;;15.79;100.00;98968.38;4921224;29;20036;-84
2022/09/10 06:44:12;;;;;;;11.90;6.57;;;;;;;16.00;100.00;98979.44;4933740;29;20036;-84
2022/09/10 06:46:41;;;;;;;11.70;7.63;;;;;;;16.06;100.00;98990.97;4915577;29;20035;-84
2022/09/10 06:49:10;;;;;;;19.55;8.38;;;;;;;16.07;100.00;98990.72;4910424;29;20108;-84
2022/09/10 06:51:39;;;;;;;17.58;7.65;;;;;;;15.94;100.00;98983.81;4880426;29;20063;-84
2022/09/10 06:54:12;;;;;;;18.25;8.30;;;;;;;15.89;100.00;98994.31;4889387;29;20119;-84
2022/09/10 06:56:37;;;;;;;19.25;7.70;;;;;;;16.01;100.00;99004.88;4913723;29;20047;-84
2022/09/10 06:59:04;;;;;;;18.20;7.38;;;;;;;15.84;100.00;99000.25;4912152;29;20478;-83
2022/09/10 07:01:30;;;;;;;20.70;8.13;;;;;;;15.85;100.00;99009.78;4910696;29;20172;-84
2022/09/10 07:03:57;;;;;;;15.30;7.82;;;;;;;15.94;100.00;99018.22;4879328;29;20040;-83
2022/09/10 07:06:25;;;;;;;15.57;7.88;;;;;;;16.09;100.00;99015.13;4898588;29;20032;-83
2022/09/10 07:08:57;;;;;;;21.58;8.75;;;;;;;16.24;100.00;99035.03;4909361;29;20061;-84
2022/09/10 07:11:25;;;;;;;13.50;7.45;;;;;;;16.32;100.00;99037.34;4911197;29;20043;-84
2022/09/10 07:13:51;;;;;;;21.55;8.52;;;;;;;16.22;100.00;99035.28;4905486;29;20091;-83
2022/09/10 07:16:19;;;;;;;23.48;9.52;;;;;;;16.11;100.00;99044.03;4911634;29;20497;-83
2022/09/10 07:18:50;;;;;;;11.98;8.13;;;;;;;16.13;100.00;99052.53;4891160;29;20643;-85
2022/09/10 07:21:17;;;;;;;23.70;7.68;;;;;;;16.34;100.00;99059.09;4911849;29;20512;-85
2022/09/10 07:23:46;;;;;;;16.42;8.00;;;;;;;16.14;100.00;99056.78;4875852;29;20052;-85
2022/09/10 07:26:14;;;;;;;20.25;8.00;;;;;;;16.15;100.00;99049.66;4875689;29;20039;-87
2022/09/10 07:28:41;;;;;;;17.80;7.20;;;;;;;16.18;100.00;99043.91;4888842;29;20064;-83
2022/09/10 07:31:12;;;;;;;15.15;8.55;;;;;;;16.37;100.00;99053.34;4886159;29;20033;-84
2022/09/10 07:33:38;;;;;;;15.85;7.20;;;;;;;16.44;100.00;99052.41;4888491;29;20044;-84
2022/09/10 07:36:05;;;;;;;21.75;7.25;;;;;;;16.52;100.00;99044.91;4886698;29;20036;-83
2022/09/10 07:38:31;;;;;;;14.88;6.40;;;;;;;16.65;100.00;99051.00;4889364;29;20066;-83
2022/09/10 07:40:58;;;;;;;13.98;6.72;;;;;;;16.67;100.00;99047.03;4886941;29;20047;-83
2022/09/10 07:43:24;;;;;;;18.42;6.43;;;;;;;16.76;100.00;99049.34;4872732;29;20025;-85
2022/09/10 07:45:50;;;;;;;14.70;5.97;;;;;;;16.56;100.00;99061.13;4874679;29;20048;-87
2022/09/10 07:48:15;;;;;;;12.93;6.20;;;;;;;16.64;100.00;99052.81;4871948;29;20044;-88
2022/09/10 07:50:41;;;;;;;12.73;7.15;;;;;;;16.56;100.00;99058.50;4887439;29;20123;-85
2022/09/10 07:53:07;;;;;;;16.90;6.75;;;;;;;16.63;100.00;99055.72;4884493;29;20037;-86
2022/09/10 07:55:33;;;;;;;14.70;6.70;;;;;;;16.67;100.00;99067.47;4887517;29;20608;-86
2022/09/10 07:58:02;;;;;;;13.82;6.30;;;;;;;17.20;100.00;99060.28;4865638;29;20048;-86
2022/09/10 08:00:35;;;;;;;16.98;6.65;;;;;;;17.04;100.00;99061.03;4880829;29;20127;-85
2022/09/10 08:03:02;;;;;;;14.27;6.18;;;;;;;17.10;100.00;99078.66;4888169;29;20043;-84
2022/09/10 08:05:27;;;;;;;8.73;5.20;;;;;;;17.35;100.00;99080.16;4888580;29;20059;-84
2022/09/10 08:07:53;;;;;;;14.20;5.45;;;;;;;17.05;100.00;99086.50;4887690;29;20029;-84
2022/09/10 08:10:20;;;;;;;12.73;5.00;;;;;;;17.05;100.00;99089.16;4869212;29;20029;-84
2022/09/10 08:12:46;;;;;;;12.70;4.75;;;;;;;17.17;100.00;99089.94;4887527;29;20069;-84
2022/09/10 08:15:11;;;;;;;10.50;4.65;;;;;;;16.91;100.00;99072.69;4881213;29;20036;-84
2022/09/10 08:17:37;;;;;;;14.15;4.70;;;;;;;17.01;100.00;99078.22;4885017;29;20395;-85
2022/09/10 08:20:08;;;;;;;9.45;4.22;;;;;;;17.16;100.00;99059.16;4866567;29;20033;-84
2022/09/10 08:22:34;;;;;;;15.18;3.88;;;;;;;17.26;100.00;99067.28;4911722;29;20061;-85
2022/09/10 08:25:01;;;;;;;7.55;4.30;;;;;;;17.40;100.00;99104.13;4928198;29;20043;-84
2022/09/10 08:27:27;;;;;;;10.55;3.72;;;;;;;17.51;100.00;99103.28;4909058;29;20033;-85
2022/09/10 08:29:53;;;;;;;10.65;4.60;;;;;;;17.93;100.00;99094.13;4904676;29;20083;-84
2022/09/10 08:32:20;;;;;;;6.70;3.55;;;;;;;17.95;100.00;99097.34;4885925;29;20419;-84
2022/09/10 08:34:47;;;;;;;7.95;3.60;;;;;;;18.01;100.00;99098.22;4903965;29;20044;-84
2022/09/10 08:37:15;;;;;;;9.73;3.17;;;;;;;17.97;100.00;99081.97;4901653;29;20025;-85
2022/09/10 08:39:41;;;;;;;10.98;3.30;;;;;;;18.10;100.00;99090.69;4890789;29;20033;-83
2022/09/10 08:42:13;;;;;;;7.90;3.20;;;;;;;18.29;100.00;99091.25;4906863;29;20032;-83
2022/09/10 08:44:55;;;;;;;6.88;3.10;;;;;;;18.59;100.00;99095.34;4903201;29;20398;-84
2022/09/10 08:47:42;;;;;;;9.73;3.33;;;;;;;18.37;100.00;99101.44;4889254;29;20048;-84
2022/09/10 08:50:23;;;;;;;7.78;3.10;;;;;;;18.42;100.00;99111.34;4899842;29;20395;-83
2022/09/10 08:53:26;;;;;;;7.38;3.25;;;;;;;18.35;100.00;99103.56;4901339;29;20040;-84
2022/09/10 08:56:04;;;;;;;8.68;4.10;;;;;;;18.39;100.00;99109.19;4885307;29;20470;-86
2022/09/10 08:58:49;;;;;;;5.97;3.00;;;;;;;18.50;100.00;99116.25;4910446;29;20094;-85
2022/09/10 09:01:24;;;;;;;6.13;3.38;;;;;;;18.40;100.00;99111.59;4887604;29;20043;-86
2022/09/10 09:03:53;;;;;;;8.15;3.30;;;;;;;18.64;100.00;99119.34;4895703;29;20497;-87
2022/09/10 09:06:23;;;;;;;6.32;3.15;;;;;;;18.61;100.00;99135.78;4889226;29;20028;-89
2022/09/10 09:08:50;;;;;;;8.77;3.60;;;;;;;18.67;100.00;99121.53;4887795;29;20036;-87
2022/09/10 09:11:28;;;;;;;8.15;3.40;;;;;;;18.75;100.00;99136.22;4925413;29;20032;-87
2022/09/10 09:14:02;;;;;;;7.88;3.38;;;;;;;18.67;100.00;99145.47;4909894;29;20108;-85
2022/09/10 09:16:53;;;;;;;7.38;3.10;;;;;;;19.02;100.00;99146.19;4912912;29;20554;-86
2022/09/10 09:19:51;;;;;;;11.65;3.65;;;;;;;18.88;100.00;99151.06;4876803;29;20115;-87
2022/09/10 09:22:35;;;;;;;8.68;3.47;;;;;;;18.63;100.00;99149.63;4889387;29;20045;-87
2022/09/10 09:25:19;;;;;;;11.85;3.60;;;;;;;18.94;100.00;99142.06;4889044;29;20036;-87
2022/09/10 09:27:48;;;;;;;8.40;3.47;;;;;;;18.90;100.00;99148.94;4907429;29;20588;-88
2022/09/10 09:30:13;;;;;;;9.75;3.20;;;;;;;18.86;100.00;99152.34;4906105;29;20581;-89
2022/09/10 09:32:47;;;;;;;7.93;3.30;;;;;;;18.54;100.00;99148.47;4887234;29;20084;-87
2022/09/10 09:35:39;;;;;;;12.73;3.78;;;;;;;18.89;100.00;99142.03;4905811;29;20021;-87
2022/09/10 09:38:26;;;;;;;4.63;3.00;;;;;;;18.88;100.00;99164.34;4906381;29;20037;-85
2022/09/10 09:40:59;;;;;;;7.65;3.30;;;;;;;19.33;100.00;99156.38;4893963;29;20088;-86
2022/09/10 09:43:30;;;;;;;12.02;3.80;;;;;;;19.27;100.00;99161.66;4904874;29;20036;-86
2022/09/10 09:45:59;;;;;;;7.38;3.53;;;;;;;19.25;100.00;99163.72;4905012;29;20041;-87
2022/09/10 09:48:38;;;;;;;5.18;2.90;;;;;;;19.64;100.00;99148.69;4897182;29;20040;-87
2022/09/10 09:51:06;;;;;;;7.63;3.10;;;;;;;19.46;100.00;99166.66;4912523;29;20108;-86
2022/09/10 09:53:39;;;;;;;16.85;3.47;;;;;;;19.18;100.00;99133.88;4891879;29;20122;-87
2022/09/10 09:56:35;;;;;;;8.68;2.92;;;;;;;19.14;100.00;99170.00;4894644;29;20104;-86
2022/09/10 09:59:10;;;;;;;5.32;2.90;;;;;;;19.17;100.00;99168.72;4874661;29;20040;-86
2022/09/10 10:01:41;;;;;;;5.53;2.95;;;;;;;19.13;100.00;99160.41;4892477;29;20658;-87
2022/09/10 10:04:32;;;;;;;10.90;2.90;;;;;;;18.76;100.00;99179.59;4892491;29;20039;-86
2022/09/10 10:07:00;;;;;;;12.20;2.90;;;;;;;19.01;100.00;99159.72;4908845;29;20036;-86
2022/09/10 10:09:31;;;;;;;5.13;2.47;;;;;;;19.36;100.00;99183.31;4903850;29;20029;-88
2022/09/10 10:12:17;;;;;;;9.77;2.72;;;;;;;19.22;100.00;99185.53;4925419;29;20087;-87
2022/09/10 10:14:45;;;;;;;5.63;2.40;;;;;;;19.41;100.00;99169.22;4911302;29;20060;-87
2022/09/10 10:17:34;;;;;;;12.35;3.88;;;;;;;19.20;100.00;99179.66;4884352;29;20037;-85
2022/09/10 10:20:16;;;;;;;7.63;2.80;;;;;;;19.60;100.00;99188.34;4919160;29;20398;-87
2022/09/10 10:22:47;;;;;;;7.05;2.58;;;;;;;19.67;100.00;99185.50;4901252;29;20052;-87
2022/09/10 10:25:33;;;;;;;6.72;2.67;;;;;;;19.82;100.00;99190.16;4904428;29;20032;-87
2022/09/10 10:27:59;;;;;;;5.80;3.00;;;;;;;19.90;100.00;99175.59;4896604;29;20032;-87
2022/09/10 10:30:28;;;;;;;8.65;2.50;;;;;;;20.10;100.00;99180.28;4882991;29;20039;-87
2022/09/10 10:32:56;;;;;;;7.45;2.72;;;;;;;20.15;100.00;99188.34;4907831;29;20071;-84
2022/09/10 10:35:33;;;;;;;9.40;3.22;;;;;;;20.07;100.00;99192.28;4905480;29;20147;-87
2022/09/10 10:38:34;;;;;;;5.13;2.70;;;;;;;19.74;100.00;99191.41;4905871;29;20407;-87
2022/09/10 10:41:17;;;;;;;7.57;2.28;;;;;;;19.81;100.00;99183.22;4906945;29;20032;-86
2022/09/10 10:44:22;;;;;;;6.00;2.30;;;;;;;19.95;100.00;99188.97;4890128;29;20383;-87
2022/09/10 10:47:25;;;;;;;7.68;2.17;;;;;;;19.77;100.00;99193.56;4908616;29;20036;-85
2022/09/10 10:50:20;;;;;;;7.38;2.40;;;;;;;19.63;100.00;99187.03;4892056;29;20481;-86
2022/09/10 10:53:36;;;;;;;4.95;2.17;;;;;;;19.70;100.00;99171.66;4904848;29;20032;-87
2022/09/10 10:56:26;;;;;;;6.03;2.35;;;;;;;19.96;100.00;99179.91;4902910;29;20051;-86
2022/09/10 10:59:31;;;;;;;3.10;2.00;;;;;;;20.37;100.00;99196.22;4920166;29;20482;-84
2022/09/10 11:02:16;;;;;;;;;;;;;;;20.66;100.00;99198.56;4900264;29;20443;-85
2022/09/10 11:04:49;;;;;;;5.25;2.20;;;;;;;20.74;100.00;99202.63;4887880;29;19920;-83
2022/09/10 11:07:27;;;;;;;8.95;2.38;;;;;;;20.15;100.00;99195.53;4903520;29;20071;-83
2022/09/10 11:09:57;;;;;;;3.10;2.20;;;;;;;20.09;100.00;99189.34;4886517;29;20032;-83
2022/09/10 11:12:54;;;;;;;5.95;2.30;;;;;;;19.87;100.00;99174.22;4906118;29;20039;-84
2022/09/10 11:15:35;;;;;;;7.35;2.03;;;;;;;19.89;100.00;99193.41;4893133;29;20044;-83
2022/09/10 11:18:13;;;;;;;4.63;2.15;;;;;;;20.07;100.00;99186.94;4901346;29;20138;-84
2022/09/10 11:20:55;;;;;;;6.32;2.30;;;;;;;20.06;100.00;99195.19;4916009;29;20027;-83
2022/09/10 11:23:39;;;;;;;5.57;2.30;;;;;;;20.43;100.00;99188.25;4886439;29;20056;-83
2022/09/10 11:26:16;;;;;;;3.88;2.30;;;;;;;20.30;100.00;99195.66;4903778;29;20092;-83
2022/09/10 11:28:56;;;;;;;6.63;2.65;;;;;;;20.48;100.00;99191.78;4907784;29;20395;-83
2022/09/10 11:31:40;;;;;;;8.32;2.20;;;;;;;21.11;100.00;99193.75;4906767;29;20029;-83
2022/09/10 11:34:20;;;;;;;3.50;2.35;;;;;;;21.36;100.00;99184.25;4875571;29;20033;-83
2022/09/10 11:36:54;;;;;;;2.90;2.30;;;;;;;21.62;100.00;99194.19;4907352;29;20096;-83
2022/09/10 11:39:42;;;;;;;7.88;2.45;;;;;;;21.85;100.00;99200.91;4866928;29;20031;-84
2022/09/10 11:42:37;;;;;;;5.30;2.67;;;;;;;21.79;100.00;99192.09;4906088;29;20032;-84